Aérodrome :
LOGIN :

S'inscrire | Disclaimer

   EN    FR    IT 

 










Légende :    VFR   VFR Marginal   IFR   IFR Intensif   IFR Très Intensif
Visi : 
Plafond : 
>= 8 km
>= 3000ft
5 à 8 km
1000 à 3000 ft
1500m à 5 km
500 à 1000 ft
800 à 1500m
200 à 500 ft
< 800m
< 200 ft
Symboles :   Orages  Brouillard  Fortes neiges  Fortes précipitations  Vent > 20 kt
SIGMETs :   Divers  Orages  Givrage  Turbulence  Onde Orograph.  Cendres Volcan.






- Altitude de l'aérodrome : 313 ft
- Code IATA : LEH


LFOH - Le Havre Octeville

DERNIER METAR :
  • 211300Z AUTO 01016KT 9999 OVC033 10/04 Q1027 TEMPO 03015G25KT 4000 SHRA BKN025TCU

METARs EXPIRÉS :
  • 211230Z AUTO 01016KT 9999 FEW027 BKN033 BKN039 09/03 Q1027 TEMPO 03015G25KT 4000 SHRA BKN025TCU
  • 211200Z AUTO 02017KT 9999 BKN029 BKN036 09/03 Q1027 TEMPO 33015G25KT 3000 SHRA BKN013 BKN020TCU
  • 211130Z AUTO 03017KT 9999 BKN033 BKN040 09/02 Q1027 TEMPO 4000 SHRA SCT017 BKN025TCU BECMG 01015G28KT
  • 211100Z AUTO 02017KT 9999 BKN031 BKN038 BKN044 09/02 Q1027 BECMG 01015G28KT
  • 211030Z AUTO 03017KT 9999 BKN031 BKN044 09/03 Q1027 BECMG 01015G28KT
  • 211000Z AUTO 03016KT 9999 BKN034 BKN042 BKN050 08/01 Q1027 BECMG 01015G28KT
  • 210930Z AUTO 02018KT 9999 BKN033 BKN039 08/02 Q1027 BECMG 01015G28KT
  • 210900Z AUTO 02015KT 9999 FEW028 BKN038 07/02 Q1027 BECMG 01015G28KT
  • 210830Z AUTO 03016KT 9999 FEW029 SCT037 BKN043 07/02 Q1027 BECMG 01015G28KT

TAF TAF LFOH
Valide du 21 à 12h jusqu'au 22 à 12h UTC


211100Z 2112/2212 03010KT 9999 SCT020
TEMPO 2112/2114 33015G25KT 3000 SHRA BKN013 BKN020TCU
PROB30
TEMPO 2114/2120 03015G25KT 4000 SHRA BKN025TCU
PROB30
TEMPO 2200/2206 4000 SHRA BKN014 BKN020TCU
ATIS : +33 2 35 54 64 93



MET'MAP, la Météo Aéronautique d'un coup d'oeil ! - Copyright ORBIFLY Décembre 2007 - Disclaimer

ORBIFLY MET'MAP TEAM :

Programmation & Développement : Alexandra Zaïnal
Sur une idée originale de : Baudouin d'Aumeries
Soutien technique & logistique : Manuel Goepfert
Assistance : Marc-Olivier Méhu




SOURCES & CREDITS :

   NOAA